Time;durP1;ratioP1;P1;durP2;ratioP2;P2;SDS_P1;SDS_P2;PMS_P1;PMS_P2;Temp;Humidity;BMP_temperature;BMP_pressure;BME280_temperature;BME280_humidity;BME280_pressure;Samples;Min_cycle;Max_cycle;Signal;HPM_P1;HPM_P2
2023/02/07 00:00:39;;;;;;;13.73;8.07;;;-1.20;99.90;;;;;;4938931;29;20193;-82
2023/02/07 00:03:04;;;;;;;11.47;8.40;;;-1.20;99.90;;;;;;4940336;29;20198;-87
2023/02/07 00:05:30;;;;;;;13.13;8.50;;;-1.10;99.90;;;;;;4940579;29;20264;-88
2023/02/07 00:07:56;;;;;;;14.03;8.00;;;-1.10;99.90;;;;;;4939342;29;20182;-86
2023/02/07 00:10:21;;;;;;;14.30;8.23;;;-1.00;99.90;;;;;;4940102;29;20181;-87
2023/02/07 00:12:48;;;;;;;13.17;8.73;;;-1.00;99.90;;;;;;4938507;29;20193;-87
2023/02/07 00:15:15;;;;;;;14.20;9.67;;;-0.90;99.90;;;;;;4939107;29;20213;-83
2023/02/07 00:17:40;;;;;;;12.47;8.60;;;-0.90;99.90;;;;;;4939059;29;20213;-86
2023/02/07 00:20:08;;;;;;;14.50;9.47;;;-0.80;99.90;;;;;;4939624;29;20185;-87
2023/02/07 00:22:33;;;;;;;15.03;9.30;;;-0.80;99.90;;;;;;4939651;29;20256;-86
2023/02/07 00:24:59;;;;;;;12.97;9.50;;;-0.80;99.90;;;;;;4939825;29;20205;-86
2023/02/07 00:27:25;;;;;;;13.87;9.17;;;-0.80;99.90;;;;;;4939460;29;20201;-86
2023/02/07 00:29:50;;;;;;;14.90;9.00;;;-0.70;99.90;;;;;;4939218;29;20265;-86
2023/02/07 00:32:16;;;;;;;14.00;9.20;;;-0.70;99.90;;;;;;4939372;29;20237;-88
2023/02/07 00:34:45;;;;;;;13.13;9.03;;;-0.70;99.90;;;;;;4939735;29;20182;-86
2023/02/07 00:37:11;;;;;;;14.13;9.37;;;-0.70;99.90;;;;;;4939925;29;20177;-85
2023/02/07 00:39:38;;;;;;;14.83;9.23;;;-0.70;99.90;;;;;;4939456;29;20256;-84
2023/02/07 00:42:04;;;;;;;15.53;8.50;;;-0.70;99.90;;;;;;4938226;29;20213;-84
2023/02/07 00:44:31;;;;;;;12.47;8.20;;;-0.70;99.90;;;;;;4938742;29;20606;-86
2023/02/07 00:46:59;;;;;;;13.47;8.57;;;-0.70;99.90;;;;;;4939427;29;20185;-85
2023/02/07 00:49:25;;;;;;;14.30;9.33;;;-0.70;99.90;;;;;;4939213;29;20221;-86
2023/02/07 00:51:50;;;;;;;13.37;8.93;;;-0.70;99.90;;;;;;4937461;29;20241;-87
2023/02/07 00:54:16;;;;;;;14.73;9.13;;;-0.70;99.90;;;;;;4939310;29;20511;-86
2023/02/07 00:56:44;;;;;;;14.73;9.50;;;-0.70;99.90;;;;;;4938053;29;20224;-87
2023/02/07 00:59:09;;;;;;;15.50;9.60;;;-0.70;99.90;;;;;;4938751;29;20261;-86
2023/02/07 01:01:37;;;;;;;14.70;9.10;;;-0.70;99.90;;;;;;4937820;29;20308;-86
2023/02/07 01:04:04;;;;;;;11.27;8.60;;;-0.80;99.90;;;;;;4939090;29;20505;-87
2023/02/07 01:06:32;;;;;;;15.73;9.03;;;-0.80;99.90;;;;;;4938922;29;20184;-85
2023/02/07 01:08:59;;;;;;;14.67;9.47;;;-0.80;99.90;;;;;;4939005;29;20174;-87
2023/02/07 01:11:26;;;;;;;14.97;9.00;;;-0.90;99.90;;;;;;4937768;29;20534;-88
2023/02/07 01:13:52;;;;;;;12.90;8.80;;;-0.90;99.90;;;;;;4938777;29;20182;-88
2023/02/07 01:16:24;;;;;;;12.47;8.50;;;-0.90;99.90;;;;;;4939037;29;20657;-88
2023/02/07 01:18:51;;;;;;;12.67;8.47;;;-0.90;99.90;;;;;;4937287;29;20182;-87
2023/02/07 01:21:20;;;;;;;15.70;8.90;;;-1.00;99.90;;;;;;4938502;29;20300;-87
2023/02/07 01:23:47;;;;;;;14.57;8.77;;;-1.00;99.90;;;;;;4939073;29;20185;-86
2023/02/07 01:26:13;;;;;;;15.00;9.40;;;-1.10;99.90;;;;;;4938808;29;20186;-87
2023/02/07 01:28:38;;;;;;;12.03;8.70;;;-1.20;99.90;;;;;;4939001;29;20174;-89
2023/02/07 01:31:09;;;;;;;16.47;8.87;;;-1.20;99.90;;;;;;4937841;29;20272;-87
2023/02/07 01:33:36;;;;;;;13.83;8.80;;;-1.20;99.90;;;;;;4938947;29;20186;-87
2023/02/07 01:36:13;;;;;;;15.20;9.50;;;-1.20;99.90;;;;;;4938067;29;20189;-88
2023/02/07 01:38:39;;;;;;;14.57;9.77;;;-1.30;99.90;;;;;;4939093;29;20233;-86
2023/02/07 01:41:05;;;;;;;14.93;9.17;;;-1.30;99.90;;;;;;4938616;29;20208;-87
2023/02/07 01:43:31;;;;;;;17.80;9.73;;;-1.30;99.90;;;;;;4937504;29;20208;-87
2023/02/07 01:45:57;;;;;;;15.93;10.87;;;-1.30;99.90;;;;;;4938854;29;20680;-88
2023/02/07 01:48:28;;;;;;;17.60;10.43;;;-1.40;99.90;;;;;;4938971;29;20189;-88
2023/02/07 01:50:56;;;;;;;19.10;10.20;;;-1.40;99.90;;;;;;4938139;29;20564;-87
2023/02/07 01:53:26;;;;;;;16.20;10.47;;;-1.40;99.90;;;;;;4938215;29;20182;-88
2023/02/07 01:55:55;;;;;;;15.80;10.60;;;-1.40;99.90;;;;;;4938352;29;20174;-88
2023/02/07 01:58:22;;;;;;;18.30;11.53;;;-1.40;99.90;;;;;;4938336;29;20175;-87
2023/02/07 02:00:49;;;;;;;19.20;11.17;;;-1.50;99.90;;;;;;4938100;29;20667;-88
2023/02/07 02:03:15;;;;;;;17.10;10.80;;;-1.60;99.90;;;;;;4937058;29;20637;-86
2023/02/07 02:05:43;;;;;;;17.53;10.87;;;-1.60;99.90;;;;;;4938428;29;20189;-88
2023/02/07 02:08:09;;;;;;;16.53;11.10;;;-1.60;99.90;;;;;;4937124;29;20186;-83
2023/02/07 02:10:38;;;;;;;17.07;11.37;;;-1.60;99.90;;;;;;4936827;29;20186;-87
2023/02/07 02:13:42;;;;;;;18.60;11.30;;;-1.60;99.90;;;;;;4937884;29;20181;-88
2023/02/07 02:16:41;;;;;;;20.47;12.60;;;-1.60;99.90;;;;;;4943964;28;20260;-87
2023/02/07 02:19:42;;;;;;;17.33;11.60;;;-1.70;99.90;;;;;;4937894;29;20228;-88
2023/02/07 02:22:10;;;;;;;23.87;13.03;;;-1.70;99.90;;;;;;4937858;29;20209;-86
2023/02/07 02:24:50;;;;;;;19.77;12.47;;;-1.70;99.90;;;;;;4938082;29;20181;-86
2023/02/07 02:27:25;;;;;;;22.63;12.93;;;-1.70;99.90;;;;;;4919095;29;20208;-88
2023/02/07 02:30:02;;;;;;;23.33;12.80;;;-1.70;99.90;;;;;;4918360;29;20251;-87
2023/02/07 02:32:51;;;;;;;22.97;13.47;;;-1.80;99.90;;;;;;4917666;29;20180;-87
2023/02/07 02:35:54;;;;;;;24.53;14.10;;;-1.80;99.90;;;;;;4917597;29;20265;-87
2023/02/07 02:38:32;;;;;;;20.87;13.90;;;-1.80;99.90;;;;;;4918475;29;20233;-86
2023/02/07 02:41:12;;;;;;;26.27;14.43;;;-1.90;99.90;;;;;;4917452;29;20221;-87
2023/02/07 02:44:05;;;;;;;24.00;14.87;;;-1.80;99.90;;;;;;4918298;29;20170;-86
2023/02/07 02:46:34;;;;;;;25.00;14.17;;;-1.80;99.90;;;;;;4917078;29;20236;-86
2023/02/07 02:49:02;;;;;;;25.57;14.43;;;-1.80;99.90;;;;;;4917095;29;20704;-86
2023/02/07 02:51:31;;;;;;;22.53;14.23;;;-1.80;99.90;;;;;;4916831;29;20233;-87
2023/02/07 02:53:58;;;;;;;26.53;14.50;;;-1.80;99.90;;;;;;4937030;29;20182;-87
2023/02/07 02:56:50;;;;;;;25.40;14.63;;;-1.80;99.90;;;;;;4937553;29;20197;-84
2023/02/07 02:59:15;;;;;;;27.03;14.20;;;-1.80;99.90;;;;;;4936522;29;20185;-85
2023/02/07 03:02:04;;;;;;;27.70;15.00;;;-1.80;99.90;;;;;;4937018;29;20617;-88
2023/02/07 03:04:51;;;;;;;24.73;14.93;;;-1.80;99.90;;;;;;4919064;29;20197;-85
2023/02/07 03:08:03;;;;;;;23.13;14.47;;;-1.80;99.90;;;;;;4937358;29;20163;-87
2023/02/07 03:11:13;;;;;;;24.97;13.63;;;-1.90;99.90;;;;;;4933131;29;20252;-84
2023/02/07 03:14:29;;;;;;;25.17;14.03;;;-1.90;99.90;;;;;;4896985;29;20191;-86
2023/02/07 03:17:12;;;;;;;22.90;14.13;;;-1.90;99.90;;;;;;4857038;29;20197;-87
2023/02/07 03:19:44;;;;;;;26.30;14.83;;;-1.90;99.90;;;;;;4949723;29;20196;-86
2023/02/07 03:24:49;;;;;;;25.13;14.03;;;-2.00;99.90;;;;;;4921150;23;20266;-87
2023/02/07 03:27:19;;;;;;;23.37;13.57;;;-2.00;99.90;;;;;;4937417;29;20181;-88
2023/02/07 03:29:48;;;;;;;20.70;13.13;;;-2.30;99.90;;;;;;4937152;29;20735;-87
2023/02/07 03:32:17;;;;;;;22.53;13.13;;;-2.40;99.90;;;;;;4937156;29;20216;-88
2023/02/07 03:35:02;;;;;;;25.30;13.70;;;-2.60;99.90;;;;;;4936023;29;20181;-87
2023/02/07 03:37:34;;;;;;;21.73;13.50;;;-2.60;99.90;;;;;;4936236;29;20192;-87
2023/02/07 03:40:00;;;;;;;22.27;14.33;;;-2.50;99.90;;;;;;4936938;29;20259;-87
2023/02/07 03:42:52;;;;;;;23.00;13.93;;;-2.50;99.90;;;;;;4936870;29;20652;-87
2023/02/07 03:45:21;;;;;;;24.13;14.70;;;-2.60;99.90;;;;;;4935953;29;20209;-88
2023/02/07 03:47:47;;;;;;;23.50;13.67;;;-2.60;99.90;;;;;;4935848;29;20268;-86
2023/02/07 03:50:14;;;;;;;21.53;13.90;;;-2.60;99.90;;;;;;4936707;29;20188;-88
2023/02/07 03:52:40;;;;;;;23.40;13.90;;;-2.50;99.90;;;;;;4936620;29;20212;-86
2023/02/07 03:55:10;;;;;;;21.83;13.53;;;-2.40;99.90;;;;;;4935232;29;20217;-85
2023/02/07 03:57:36;;;;;;;24.00;14.03;;;-2.40;99.90;;;;;;4951794;29;20739;-87
2023/02/07 04:00:03;;;;;;;21.17;13.13;;;-2.40;99.90;;;;;;4951387;29;20288;-85
2023/02/07 04:02:28;;;;;;;21.77;13.37;;;-2.40;99.90;;;;;;4936715;29;20185;-88
2023/02/07 04:04:54;;;;;;;20.73;12.83;;;-2.30;99.90;;;;;;4936959;29;20213;-88
2023/02/07 04:07:19;;;;;;;21.57;12.73;;;-2.30;99.90;;;;;;4936998;29;20182;-88
2023/02/07 04:09:45;;;;;;;20.47;12.63;;;-2.30;99.90;;;;;;4935091;29;20265;-87
2023/02/07 04:12:11;;;;;;;20.77;12.13;;;-2.30;99.90;;;;;;4936519;29;20309;-87
2023/02/07 04:14:37;;;;;;;20.40;12.37;;;-2.30;99.90;;;;;;4936474;29;20617;-88
2023/02/07 04:17:03;;;;;;;24.60;13.23;;;-2.30;99.90;;;;;;4951356;29;20185;-88
2023/02/07 04:19:29;;;;;;;21.70;12.47;;;-2.30;99.90;;;;;;4936450;29;20173;-87
2023/02/07 04:21:54;;;;;;;18.57;12.07;;;-2.30;99.90;;;;;;4935368;29;20193;-87
2023/02/07 04:24:21;;;;;;;22.23;13.17;;;-2.40;99.90;;;;;;4922553;29;20552;-84
2023/02/07 04:26:47;;;;;;;23.47;13.17;;;-2.40;99.90;;;;;;4917200;29;20189;-85
2023/02/07 04:29:13;;;;;;;21.37;11.93;;;-2.40;99.90;;;;;;4920707;29;20177;-87
2023/02/07 04:31:41;;;;;;;18.77;11.83;;;-2.40;99.90;;;;;;4920584;29;20570;-87
2023/02/07 04:34:08;;;;;;;20.60;12.40;;;-2.50;99.90;;;;;;4920915;29;20179;-82
2023/02/07 04:36:34;;;;;;;18.53;11.23;;;-2.50;99.90;;;;;;4920899;29;20183;-84
2023/02/07 04:39:00;;;;;;;17.70;11.60;;;-2.50;99.90;;;;;;4920383;29;20165;-84
2023/02/07 04:41:26;;;;;;;17.57;11.20;;;-2.60;99.90;;;;;;4920473;29;20224;-83
2023/02/07 04:43:52;;;;;;;20.27;11.93;;;-2.60;99.90;;;;;;4919416;29;20181;-86
2023/02/07 04:46:19;;;;;;;21.87;12.27;;;-2.60;99.90;;;;;;4934795;29;20238;-87
2023/02/07 04:48:47;;;;;;;22.57;13.13;;;-2.60;99.90;;;;;;4939543;29;20199;-85
2023/02/07 04:51:12;;;;;;;20.37;12.10;;;-2.60;99.90;;;;;;4939039;29;20208;-84
2023/02/07 04:53:38;;;;;;;19.53;11.90;;;-2.60;99.90;;;;;;4952984;28;20184;-86
2023/02/07 04:56:04;;;;;;;18.80;11.30;;;-2.60;99.90;;;;;;4938952;29;20617;-84
2023/02/07 04:58:30;;;;;;;20.47;12.33;;;-2.70;99.90;;;;;;4953685;29;20573;-88
2023/02/07 05:00:55;;;;;;;18.37;11.27;;;-2.70;99.90;;;;;;4938594;29;20205;-88
2023/02/07 05:03:21;;;;;;;18.07;11.67;;;-2.70;99.90;;;;;;4937481;29;20630;-87
2023/02/07 05:05:47;;;;;;;19.57;11.03;;;-2.70;99.90;;;;;;4937431;29;20261;-88
2023/02/07 05:08:13;;;;;;;22.23;12.33;;;-2.80;99.90;;;;;;4938383;29;20276;-87
2023/02/07 05:10:39;;;;;;;17.70;11.23;;;-2.80;99.90;;;;;;4939395;29;20184;-88
2023/02/07 05:13:06;;;;;;;19.00;11.33;;;-2.80;99.90;;;;;;4938243;29;20239;-88
2023/02/07 05:15:35;;;;;;;17.50;11.90;;;-2.80;99.90;;;;;;4938392;29;20505;-88
2023/02/07 05:18:01;;;;;;;19.47;11.90;;;-2.80;99.90;;;;;;4938043;29;20186;-86
2023/02/07 05:20:26;;;;;;;16.90;11.00;;;-2.80;99.90;;;;;;4938580;29;20189;-87
2023/02/07 05:22:52;;;;;;;20.70;12.60;;;-2.80;99.90;;;;;;4937397;29;20240;-84
2023/02/07 05:25:18;;;;;;;16.63;10.97;;;-2.70;99.90;;;;;;4938891;29;20255;-86
2023/02/07 05:27:44;;;;;;;19.50;11.83;;;-2.80;99.90;;;;;;4937555;29;20180;-86
2023/02/07 05:30:10;;;;;;;22.00;11.97;;;-2.80;99.90;;;;;;4937469;29;20199;-85
2023/02/07 05:35:20;;;;;;;18.17;10.97;;;-3.10;99.90;;;;;;4938538;29;20223;-83
2023/02/07 05:37:47;;;;;;;21.30;11.90;;;-3.00;99.90;;;;;;4934712;29;20184;-85
2023/02/07 05:40:12;;;;;;;17.93;10.73;;;-3.00;99.90;;;;;;4919316;29;20206;-87
2023/02/07 05:42:39;;;;;;;20.87;11.40;;;-3.10;99.90;;;;;;4919284;29;20620;-87
2023/02/07 05:45:09;;;;;;;23.27;12.53;;;-3.10;99.90;;;;;;4919152;29;20535;-87
2023/02/07 05:47:34;;;;;;;22.37;13.23;;;-3.10;99.90;;;;;;4934448;29;20274;-86
2023/02/07 05:50:00;;;;;;;24.23;12.20;;;-3.00;99.90;;;;;;4920312;29;20655;-87
2023/02/07 05:52:26;;;;;;;22.23;13.73;;;-3.10;99.90;;;;;;4919365;29;20637;-87
2023/02/07 05:54:52;;;;;;;19.20;11.97;;;-3.10;99.90;;;;;;4924759;29;20271;-86
2023/02/07 05:57:19;;;;;;;19.77;12.93;;;-3.10;99.90;;;;;;4938467;29;20215;-87
2023/02/07 05:59:45;;;;;;;21.90;12.67;;;-3.10;99.90;;;;;;4938233;29;20520;-87
2023/02/07 06:02:11;;;;;;;21.77;13.00;;;-3.00;99.90;;;;;;4938529;29;20185;-86
2023/02/07 06:04:37;;;;;;;22.70;13.23;;;-3.00;99.90;;;;;;4936490;29;20184;-86
2023/02/07 06:07:02;;;;;;;24.60;12.73;;;-3.10;99.90;;;;;;4936122;29;20235;-87
2023/02/07 06:09:28;;;;;;;20.67;13.00;;;-3.10;99.90;;;;;;4937654;29;20176;-87
2023/02/07 06:11:54;;;;;;;24.23;13.27;;;-3.10;99.90;;;;;;4937390;29;20564;-86
2023/02/07 06:14:21;;;;;;;21.70;13.33;;;-3.20;99.90;;;;;;4937636;29;20178;-87
2023/02/07 06:16:46;;;;;;;23.30;13.50;;;-3.20;99.90;;;;;;4937596;29;20182;-88
2023/02/07 06:19:12;;;;;;;25.70;14.13;;;-3.20;99.90;;;;;;4937315;29;20177;-87
2023/02/07 06:21:38;;;;;;;22.63;13.27;;;-3.10;99.90;;;;;;4952437;29;20524;-87
2023/02/07 06:24:04;;;;;;;24.50;14.17;;;-3.10;99.90;;;;;;4936082;29;20247;-87
2023/02/07 06:26:30;;;;;;;23.33;14.57;;;-3.10;99.90;;;;;;4937498;29;20633;-88
2023/02/07 06:28:56;;;;;;;29.00;14.00;;;-3.10;99.90;;;;;;4937471;29;20182;-87
2023/02/07 06:31:22;;;;;;;23.53;13.43;;;-3.20;99.90;;;;;;4937128;29;20215;-86
2023/02/07 06:33:47;;;;;;;25.03;13.63;;;-3.20;99.90;;;;;;4937455;29;20179;-87
2023/02/07 06:36:13;;;;;;;28.40;14.57;;;-3.20;99.90;;;;;;4937177;29;20551;-87
2023/02/07 06:38:39;;;;;;;25.40;14.23;;;-3.20;99.90;;;;;;4937359;29;20179;-87
2023/02/07 06:41:07;;;;;;;23.83;14.27;;;-3.20;99.90;;;;;;4937096;29;20663;-87
2023/02/07 06:43:32;;;;;;;26.00;14.90;;;-3.20;99.90;;;;;;4948736;29;20193;-87
2023/02/07 06:45:58;;;;;;;27.67;14.63;;;-3.30;99.90;;;;;;4955088;29;20182;-87
2023/02/07 06:48:24;;;;;;;23.20;14.37;;;-3.30;99.90;;;;;;4955257;28;20526;-87
2023/02/07 06:50:50;;;;;;;28.27;16.70;;;-3.30;99.90;;;;;;4953859;29;20735;-87
2023/02/07 06:53:16;;;;;;;28.07;15.23;;;-3.20;99.90;;;;;;4955978;28;20181;-86
2023/02/07 06:55:42;;;;;;;28.30;15.67;;;-3.20;99.90;;;;;;4955865;28;20633;-86
2023/02/07 06:58:08;;;;;;;29.13;14.77;;;-3.20;99.90;;;;;;4955094;29;20196;-87
2023/02/07 07:00:34;;;;;;;26.20;15.50;;;-3.20;99.90;;;;;;4954538;29;20179;-87
2023/02/07 07:03:00;;;;;;;24.03;14.70;;;-3.20;99.90;;;;;;4954778;29;20570;-86
2023/02/07 07:05:28;;;;;;;28.77;14.97;;;-3.20;99.90;;;;;;4954740;29;20286;-85
2023/02/07 07:07:54;;;;;;;29.27;14.90;;;-3.30;99.90;;;;;;4935699;29;20187;-87
2023/02/07 07:10:20;;;;;;;28.90;15.33;;;-3.30;99.90;;;;;;4936705;29;20182;-88
2023/02/07 07:12:46;;;;;;;28.43;15.43;;;-3.30;99.90;;;;;;4951475;28;20229;-88
2023/02/07 07:15:12;;;;;;;30.27;15.63;;;-3.30;99.90;;;;;;4951544;29;20277;-88
2023/02/07 07:17:38;;;;;;;30.40;16.73;;;-3.30;99.90;;;;;;4936633;29;20337;-87
2023/02/07 07:20:05;;;;;;;24.27;14.83;;;-3.30;99.90;;;;;;4936625;29;20181;-87
2023/02/07 07:22:31;;;;;;;26.10;15.37;;;-3.30;99.90;;;;;;4936146;29;20201;-88
2023/02/07 07:24:57;;;;;;;31.80;15.50;;;-3.20;99.90;;;;;;4935486;29;20196;-86
2023/02/07 07:27:22;;;;;;;28.47;16.40;;;-3.20;99.90;;;;;;4936562;29;20248;-87
2023/02/07 07:29:48;;;;;;;29.23;15.70;;;-3.20;99.90;;;;;;4936447;29;20177;-87
2023/02/07 07:32:15;;;;;;;30.27;16.20;;;-3.20;99.90;;;;;;4936455;29;20218;-87
2023/02/07 07:34:41;;;;;;;27.00;16.63;;;-3.20;99.90;;;;;;4936487;29;20183;-88
2023/02/07 07:37:07;;;;;;;27.47;15.00;;;-3.10;99.90;;;;;;4936291;29;20192;-87
2023/02/07 07:39:33;;;;;;;27.80;16.03;;;-3.10;99.90;;;;;;4951259;29;20185;-87
2023/02/07 07:41:59;;;;;;;27.53;15.17;;;-3.10;99.90;;;;;;4951278;28;20191;-86
2023/02/07 07:44:24;;;;;;;27.70;14.83;;;-3.00;99.90;;;;;;4951365;29;20183;-88
2023/02/07 07:46:51;;;;;;;30.87;16.37;;;-3.00;99.90;;;;;;4951172;29;20236;-87
2023/02/07 07:49:17;;;;;;;28.53;15.90;;;-3.00;99.90;;;;;;4951085;29;20184;-87
2023/02/07 07:51:43;;;;;;;24.23;14.00;;;-3.00;99.90;;;;;;4934103;29;20219;-87
2023/02/07 07:54:08;;;;;;;28.93;17.17;;;-3.00;99.90;;;;;;4936470;29;20666;-88
2023/02/07 07:56:34;;;;;;;27.47;14.83;;;-3.00;99.90;;;;;;4950869;29;20190;-87
2023/02/07 07:59:01;;;;;;;27.57;16.50;;;-2.90;99.90;;;;;;4936370;29;20227;-87
2023/02/07 08:01:27;;;;;;;30.30;16.40;;;-3.00;99.90;;;;;;4938139;29;20637;-87
2023/02/07 08:03:53;;;;;;;29.47;17.17;;;-2.90;99.90;;;;;;4939561;29;20257;-87
2023/02/07 08:06:19;;;;;;;31.30;16.80;;;-2.90;99.90;;;;;;4935352;29;20188;-88
2023/02/07 08:08:44;;;;;;;29.00;16.57;;;-2.90;99.90;;;;;;4920887;29;20249;-86
2023/02/07 08:11:10;;;;;;;32.47;16.67;;;-2.90;99.90;;;;;;4920680;29;20182;-88
2023/02/07 08:13:37;;;;;;;28.43;16.63;;;-2.80;99.90;;;;;;4935429;29;20255;-87
2023/02/07 08:16:04;;;;;;;27.90;16.70;;;-2.70;99.90;;;;;;4920584;29;20180;-87
2023/02/07 08:18:29;;;;;;;25.73;15.63;;;-2.70;99.90;;;;;;4921571;29;20201;-88
2023/02/07 08:20:55;;;;;;;30.83;16.33;;;-2.70;99.90;;;;;;4939415;29;20173;-88
2023/02/07 08:23:22;;;;;;;29.53;16.77;;;-2.60;99.90;;;;;;4939355;29;20278;-87
2023/02/07 08:25:49;;;;;;;26.10;15.87;;;-2.60;99.90;;;;;;4939730;29;20211;-87
2023/02/07 08:28:15;;;;;;;29.23;16.47;;;-2.50;99.90;;;;;;4939692;29;20176;-88
2023/02/07 08:30:41;;;;;;;28.20;16.73;;;-2.40;99.90;;;;;;4939483;29;20181;-87
2023/02/07 08:33:07;;;;;;;29.30;17.07;;;-2.40;99.90;;;;;;4939485;29;20217;-86
2023/02/07 08:35:33;;;;;;;30.80;17.40;;;-2.40;99.90;;;;;;4939424;29;20177;-87
2023/02/07 08:37:59;;;;;;;30.20;17.57;;;-2.40;99.90;;;;;;4939276;29;20212;-84
2023/02/07 08:40:25;;;;;;;27.07;16.93;;;-2.30;99.90;;;;;;4939311;29;20201;-86
2023/02/07 08:42:51;;;;;;;28.13;17.30;;;-2.20;99.90;;;;;;4939116;29;20195;-85
2023/02/07 08:45:17;;;;;;;34.20;16.80;;;-2.10;99.90;;;;;;4939174;29;20240;-85
2023/02/07 08:47:44;;;;;;;29.37;15.97;;;-2.10;99.90;;;;;;4939215;29;20188;-86
2023/02/07 08:50:11;;;;;;;28.50;16.73;;;-2.00;99.90;;;;;;4953802;29;20184;-86
2023/02/07 08:52:37;;;;;;;28.63;16.10;;;-1.90;99.90;;;;;;4938703;29;20216;-85
2023/02/07 08:55:03;;;;;;;30.40;17.07;;;-1.90;99.90;;;;;;4937671;29;20178;-85
2023/02/07 08:57:29;;;;;;;29.10;16.30;;;-1.80;99.90;;;;;;4939050;29;20688;-86
2023/02/07 08:59:55;;;;;;;26.97;16.60;;;-1.70;99.90;;;;;;4938820;29;20285;-87
2023/02/07 09:02:20;;;;;;;27.03;15.90;;;-1.60;99.90;;;;;;4953463;29;20614;-87
2023/02/07 09:04:46;;;;;;;28.07;16.53;;;-1.60;99.90;;;;;;4939038;29;20178;-85
2023/02/07 09:07:14;;;;;;;30.43;17.97;;;-1.40;99.90;;;;;;4953353;28;20523;-86
2023/02/07 09:09:39;;;;;;;29.83;16.97;;;-1.40;99.90;;;;;;4938638;29;20176;-86
2023/02/07 09:12:06;;;;;;;28.10;16.10;;;-1.30;99.90;;;;;;4937684;29;20216;-84
2023/02/07 09:14:32;;;;;;;26.33;16.80;;;-1.30;99.90;;;;;;4938381;29;20658;-86
2023/02/07 09:16:58;;;;;;;27.70;16.67;;;-1.30;99.90;;;;;;4938493;29;20256;-84
2023/02/07 09:19:24;;;;;;;28.07;16.17;;;-1.20;99.90;;;;;;4933739;29;20273;-86
2023/02/07 09:21:49;;;;;;;26.40;16.80;;;-1.10;99.90;;;;;;4919358;29;20170;-85
2023/02/07 09:24:15;;;;;;;27.17;15.93;;;-1.10;99.90;;;;;;4934035;29;20230;-86
2023/02/07 09:26:41;;;;;;;26.70;16.40;;;-1.10;99.90;;;;;;4918163;29;20237;-86
2023/02/07 09:29:07;;;;;;;27.00;16.50;;;-1.00;99.90;;;;;;4919193;29;20234;-84
2023/02/07 09:31:33;;;;;;;29.90;17.00;;;-0.90;99.90;;;;;;4917907;29;20214;-86
2023/02/07 09:34:01;;;;;;;28.03;16.80;;;-0.90;99.90;;;;;;4918037;29;20189;-85
2023/02/07 09:36:28;;;;;;;26.73;16.00;;;-0.90;99.90;;;;;;4918990;29;20613;-86
2023/02/07 09:38:55;;;;;;;24.17;14.97;;;-0.90;99.90;;;;;;4917612;29;20182;-82
2023/02/07 09:41:25;;;;;;;23.10;14.63;;;-0.80;99.90;;;;;;4918927;29;20177;-84
2023/02/07 09:44:24;;;;;;;25.07;15.13;;;-0.80;99.90;;;;;;4919028;29;20175;-86
2023/02/07 09:46:52;;;;;;;24.93;15.67;;;-0.80;99.90;;;;;;4923942;29;20190;-85
2023/02/07 09:49:43;;;;;;;26.17;14.77;;;-0.90;99.90;;;;;;4939958;29;20284;-85
2023/02/07 09:52:46;;;;;;;25.03;15.07;;;-0.80;99.90;;;;;;4936236;29;20712;-85
2023/02/07 09:55:39;;;;;;;23.67;13.60;;;-0.70;99.90;;;;;;4909768;29;20284;-85
2023/02/07 09:58:26;;;;;;;21.93;12.80;;;-0.70;99.90;;;;;;4952445;29;20274;-86
2023/02/07 10:01:00;;;;;;;21.50;13.10;;;-0.60;99.90;;;;;;4937399;29;20182;-85
2023/02/07 10:03:28;;;;;;;19.77;11.97;;;-0.60;99.90;;;;;;4952315;29;20205;-85
2023/02/07 10:06:12;;;;;;;25.70;13.70;;;-0.50;99.90;;;;;;4936392;29;20182;-84
2023/02/07 10:08:37;;;;;;;21.67;13.40;;;-0.50;99.90;;;;;;4952215;29;20508;-86
2023/02/07 10:11:33;;;;;;;22.90;13.43;;;-0.40;99.90;;;;;;4937218;29;20180;-85
2023/02/07 10:14:20;;;;;;;21.63;12.90;;;-0.40;99.90;;;;;;4937527;29;20167;-85
2023/02/07 10:17:01;;;;;;;19.60;11.93;;;-0.30;99.90;;;;;;4952471;29;20574;-86
2023/02/07 10:20:03;;;;;;;20.80;12.37;;;-0.30;99.90;;;;;;4932787;29;20190;-85
2023/02/07 10:22:47;;;;;;;18.13;11.30;;;-0.30;99.90;;;;;;4917735;29;20263;-86
2023/02/07 10:25:47;;;;;;;19.77;11.07;;;-0.30;99.90;;;;;;4918261;29;20250;-85
2023/02/07 10:28:13;;;;;;;16.47;9.90;;;-0.30;99.90;;;;;;4918386;29;20171;-85
2023/02/07 10:30:51;;;;;;;23.57;11.80;;;-0.20;99.90;;;;;;4932524;29;20194;-86
2023/02/07 10:33:21;;;;;;;18.97;11.43;;;-0.10;99.90;;;;;;4917920;29;20301;-87
2023/02/07 10:35:47;;;;;;;20.60;12.47;;;0.00;99.90;;;;;;4918081;29;20178;-85
2023/02/07 10:38:45;;;;;;;20.47;11.80;;;0.00;99.90;;;;;;4917851;29;20178;-85
2023/02/07 10:41:18;;;;;;;18.63;11.33;;;0.00;99.90;;;;;;4916681;29;20522;-85
2023/02/07 10:43:46;;;;;;;17.93;10.87;;;0.10;99.90;;;;;;4932564;29;20632;-86
2023/02/07 10:46:15;;;;;;;16.23;9.77;;;0.20;99.90;;;;;;4917846;29;20189;-85
2023/02/07 10:48:41;;;;;;;19.23;10.97;;;0.30;99.90;;;;;;4920425;29;20181;-86
2023/02/07 10:51:28;;;;;;;16.57;10.03;;;0.30;99.90;;;;;;4933445;29;20618;-86
2023/02/07 10:54:09;;;;;;;15.03;9.63;;;0.30;99.90;;;;;;4940916;29;20190;-86
2023/02/07 10:56:41;;;;;;;14.47;8.67;;;0.40;99.90;;;;;;4930175;29;20177;-87
2023/02/07 10:59:25;;;;;;;17.50;8.43;;;0.40;99.90;;;;;;4936347;29;20174;-85
2023/02/07 11:02:39;;;;;;;13.43;8.30;;;0.50;99.90;;;;;;4936792;29;20170;-85
2023/02/07 11:05:54;;;;;;;14.70;8.07;;;0.50;99.90;;;;;;4936003;29;20279;-84
2023/02/07 11:08:23;;;;;;;13.13;8.30;;;0.60;99.90;;;;;;4935611;29;20565;-86
2023/02/07 11:10:52;;;;;;;11.93;8.30;;;0.60;99.90;;;;;;4935204;29;20731;-86
2023/02/07 11:13:25;;;;;;;14.47;8.90;;;0.70;99.90;;;;;;4935128;29;20223;-85
2023/02/07 11:15:51;;;;;;;13.83;8.57;;;0.70;99.90;;;;;;4934255;29;20361;-85
2023/02/07 11:18:36;;;;;;;14.40;8.70;;;0.80;99.90;;;;;;4936492;29;20684;-85
2023/02/07 11:21:42;;;;;;;13.03;8.33;;;0.90;99.90;;;;;;4934968;29;20181;-85
2023/02/07 11:24:14;;;;;;;15.27;8.93;;;1.00;99.90;;;;;;4933607;29;20259;-85
2023/02/07 11:27:06;;;;;;;14.17;8.47;;;1.00;99.90;;;;;;4935213;29;20265;-85
2023/02/07 11:29:39;;;;;;;14.67;8.50;;;1.10;99.90;;;;;;4935938;29;20248;-85
2023/02/07 11:32:05;;;;;;;17.20;8.27;;;1.10;99.90;;;;;;4936235;29;20569;-84
2023/02/07 11:34:57;;;;;;;15.10;8.77;;;1.20;99.90;;;;;;4935123;29;20210;-85
2023/02/07 11:37:22;;;;;;;15.17;8.73;;;1.20;99.90;;;;;;4940038;29;20588;-85
2023/02/07 11:39:50;;;;;;;15.30;9.17;;;1.30;99.90;;;;;;4939901;29;20269;-85
2023/02/07 11:42:29;;;;;;;13.60;8.77;;;1.30;99.90;;;;;;4938742;29;20209;-85
2023/02/07 11:44:55;;;;;;;13.13;7.97;;;1.40;99.90;;;;;;4939795;29;20185;-85
2023/02/07 11:47:28;;;;;;;14.00;8.10;;;1.50;99.90;;;;;;4938851;29;20229;-85
2023/02/07 11:49:57;;;;;;;12.93;7.97;;;1.60;99.90;;;;;;4938593;29;20220;-85
2023/02/07 11:52:23;;;;;;;14.47;7.93;;;1.70;99.90;;;;;;4939736;29;20237;-85
2023/02/07 11:54:55;;;;;;;12.30;7.30;;;1.80;99.90;;;;;;4938720;29;20182;-85
2023/02/07 11:57:22;;;;;;;11.03;7.20;;;1.90;99.90;;;;;;4938608;29;20241;-85
2023/02/07 12:00:15;;;;;;;11.37;6.70;;;1.80;99.90;;;;;;4939425;29;20178;-85
2023/02/07 12:02:48;;;;;;;11.13;7.00;;;1.90;99.90;;;;;;4954373;28;20530;-85
2023/02/07 12:05:21;;;;;;;10.90;7.27;;;2.00;99.90;;;;;;4938671;29;20269;-85
2023/02/07 12:07:56;;;;;;;14.37;8.20;;;2.10;99.90;;;;;;4940011;28;20657;-85
2023/02/07 12:10:27;;;;;;;12.87;7.40;;;2.20;99.90;;;;;;4938387;29;20181;-85
2023/02/07 12:12:53;;;;;;;12.17;7.77;;;2.30;99.90;;;;;;4939482;29;20202;-85
2023/02/07 12:15:21;;;;;;;13.60;7.53;;;2.40;99.90;;;;;;4934711;29;20685;-85
2023/02/07 12:18:15;;;;;;;12.57;7.37;;;2.40;99.90;;;;;;4919191;29;20190;-84
2023/02/07 12:20:55;;;;;;;13.57;7.73;;;2.50;99.90;;;;;;4919465;29;20186;-85
2023/02/07 12:23:38;;;;;;;14.50;7.73;;;2.50;99.90;;;;;;4920182;29;20652;-85
2023/02/07 12:26:16;;;;;;;12.23;7.70;;;2.60;99.90;;;;;;4920352;29;20259;-84
2023/02/07 12:29:20;;;;;;;12.37;7.17;;;2.60;99.90;;;;;;4934870;29;20529;-85
2023/02/07 12:31:53;;;;;;;13.47;7.73;;;2.70;99.90;;;;;;4919860;29;20300;-85
2023/02/07 12:34:31;;;;;;;12.67;7.53;;;2.90;99.90;;;;;;4920164;29;20179;-84
2023/02/07 12:37:15;;;;;;;14.50;8.13;;;2.90;99.90;;;;;;4920138;29;20175;-85
2023/02/07 12:39:49;;;;;;;11.67;7.63;;;3.00;99.90;;;;;;4934662;29;20186;-84
2023/02/07 12:42:29;;;;;;;12.53;8.30;;;3.10;99.90;;;;;;4934557;29;20182;-85
2023/02/07 12:44:59;;;;;;;14.17;8.13;;;3.10;99.90;;;;;;4925682;29;20632;-84
2023/02/07 12:48:05;;;;;;;14.03;9.07;;;3.10;99.90;;;;;;4936425;29;20200;-85
2023/02/07 12:50:53;;;;;;;14.00;8.83;;;3.20;99.90;;;;;;4937278;29;20182;-84
2023/02/07 12:53:44;;;;;;;15.93;7.67;;;3.20;99.90;;;;;;4937420;29;20224;-85
2023/02/07 12:56:19;;;;;;;15.17;8.87;;;3.30;99.90;;;;;;4938993;29;20163;-85